Archival Weather

Heathrow

London, United Kingdom (EGLL)

Report from: Thursday, September 21, 2023 9:50 PM BST
Current time: Friday, July 19, 2024 4:44 AM BST

Current weather – Weather history – Daily summaries
Weather forecast

Temperature13.0°C (55.4°F)
Dew point12.0°C (53.6°F)
Winds 4 kts (2.1 m/s, 4.6 mph) West (260°)
Visibility6.2 mi. (10 km)
Altimeter29.41 in.Hg (996 mB)
Relative humidity94 %
Density altitude547 ft. (167 m)
Remarks Fully automated report
No significant changes expected in the next two hours
Flight conditions Visual Meteorological Conditions
Raw dataEGLL 212050Z AUTO 26004KT 9999 //////TCU 13/12 Q0996 NOSIG
An error has occurred. This application may no longer respond until reloaded. Reload 🗙